sensor_id;sensor_type;location;lat;lon;timestamp;P1;durP1;ratioP1;P2;durP2;ratioP2
73321;SDS011;61549;37.044;22.128;2022-10-30T00:00:31;2.10;;;1.90;;
73321;SDS011;61549;37.044;22.128;2022-10-30T00:02:57;2.60;;;2.05;;
73321;SDS011;61549;37.044;22.128;2022-10-30T00:05:23;2.95;;;2.00;;
73321;SDS011;61549;37.044;22.128;2022-10-30T00:07:49;2.85;;;2.20;;
73321;SDS011;61549;37.044;22.128;2022-10-30T00:10:15;2.53;;;1.90;;
73321;SDS011;61549;37.044;22.128;2022-10-30T00:12:42;2.97;;;2.05;;
73321;SDS011;61549;37.044;22.128;2022-10-30T00:15:08;2.63;;;2.05;;
73321;SDS011;61549;37.044;22.128;2022-10-30T00:17:34;2.47;;;2.00;;
73321;SDS011;61549;37.044;22.128;2022-10-30T00:20:00;3.45;;;2.10;;
73321;SDS011;61549;37.044;22.128;2022-10-30T00:22:26;3.45;;;2.10;;
73321;SDS011;61549;37.044;22.128;2022-10-30T00:24:52;5.72;;;2.08;;
73321;SDS011;61549;37.044;22.128;2022-10-30T00:27:18;2.20;;;1.75;;
73321;SDS011;61549;37.044;22.128;2022-10-30T00:29:44;3.60;;;2.20;;
73321;SDS011;61549;37.044;22.128;2022-10-30T00:32:10;2.10;;;1.75;;
73321;SDS011;61549;37.044;22.128;2022-10-30T00:34:35;2.00;;;1.80;;
73321;SDS011;61549;37.044;22.128;2022-10-30T00:37:01;2.75;;;1.73;;
73321;SDS011;61549;37.044;22.128;2022-10-30T00:39:27;2.40;;;1.92;;
73321;SDS011;61549;37.044;22.128;2022-10-30T00:41:53;2.17;;;1.88;;
73321;SDS011;61549;37.044;22.128;2022-10-30T00:47:10;2.35;;;1.80;;
73321;SDS011;61549;37.044;22.128;2022-10-30T00:49:57;3.83;;;2.00;;
73321;SDS011;61549;37.044;22.128;2022-10-30T00:55:20;4.05;;;2.00;;
73321;SDS011;61549;37.044;22.128;2022-10-30T00:57:50;3.00;;;2.10;;
73321;SDS011;61549;37.044;22.128;2022-10-30T01:00:18;2.47;;;1.90;;
73321;SDS011;61549;37.044;22.128;2022-10-30T01:02:46;5.05;;;1.95;;
73321;SDS011;61549;37.044;22.128;2022-10-30T01:05:14;3.40;;;2.10;;
73321;SDS011;61549;37.044;22.128;2022-10-30T01:07:44;2.60;;;1.88;;
73321;SDS011;61549;37.044;22.128;2022-10-30T01:10:10;2.80;;;2.10;;
73321;SDS011;61549;37.044;22.128;2022-10-30T01:12:37;3.10;;;2.20;;
73321;SDS011;61549;37.044;22.128;2022-10-30T01:15:04;3.60;;;2.20;;
73321;SDS011;61549;37.044;22.128;2022-10-30T01:17:56;2.70;;;1.90;;
73321;SDS011;61549;37.044;22.128;2022-10-30T01:23:09;2.83;;;2.20;;
73321;SDS011;61549;37.044;22.128;2022-10-30T01:25:56;2.65;;;2.05;;
73321;SDS011;61549;37.044;22.128;2022-10-30T01:28:34;3.35;;;2.03;;
73321;SDS011;61549;37.044;22.128;2022-10-30T01:34:10;3.80;;;2.30;;
73321;SDS011;61549;37.044;22.128;2022-10-30T01:37:02;3.00;;;2.22;;
73321;SDS011;61549;37.044;22.128;2022-10-30T01:39:48;2.90;;;1.92;;
73321;SDS011;61549;37.044;22.128;2022-10-30T01:45:01;2.97;;;1.88;;
73321;SDS011;61549;37.044;22.128;2022-10-30T01:50:02;4.47;;;2.05;;
73321;SDS011;61549;37.044;22.128;2022-10-30T01:52:56;2.60;;;2.00;;
73321;SDS011;61549;37.044;22.128;2022-10-30T01:55:37;3.65;;;2.38;;
73321;SDS011;61549;37.044;22.128;2022-10-30T01:58:16;2.97;;;1.98;;
73321;SDS011;61549;37.044;22.128;2022-10-30T02:00:45;2.53;;;1.90;;
73321;SDS011;61549;37.044;22.128;2022-10-30T02:03:16;3.72;;;2.00;;
73321;SDS011;61549;37.044;22.128;2022-10-30T02:05:49;2.42;;;2.00;;
73321;SDS011;61549;37.044;22.128;2022-10-30T02:08:16;2.70;;;2.00;;
73321;SDS011;61549;37.044;22.128;2022-10-30T02:10:43;3.03;;;2.15;;
73321;SDS011;61549;37.044;22.128;2022-10-30T02:13:11;3.92;;;2.40;;
73321;SDS011;61549;37.044;22.128;2022-10-30T02:15:36;4.30;;;2.30;;
73321;SDS011;61549;37.044;22.128;2022-10-30T02:18:03;2.88;;;1.92;;
73321;SDS011;61549;37.044;22.128;2022-10-30T02:20:29;4.38;;;2.05;;
73321;SDS011;61549;37.044;22.128;2022-10-30T02:22:56;2.95;;;2.30;;
73321;SDS011;61549;37.044;22.128;2022-10-30T02:25:22;3.03;;;2.25;;
73321;SDS011;61549;37.044;22.128;2022-10-30T02:27:47;3.20;;;2.47;;
73321;SDS011;61549;37.044;22.128;2022-10-30T02:30:13;3.22;;;2.28;;
73321;SDS011;61549;37.044;22.128;2022-10-30T02:32:39;2.55;;;2.28;;
73321;SDS011;61549;37.044;22.128;2022-10-30T02:35:05;3.17;;;2.40;;
73321;SDS011;61549;37.044;22.128;2022-10-30T02:37:31;6.75;;;2.00;;
73321;SDS011;61549;37.044;22.128;2022-10-30T02:39:59;3.28;;;2.42;;
73321;SDS011;61549;37.044;22.128;2022-10-30T02:42:26;5.25;;;2.28;;
73321;SDS011;61549;37.044;22.128;2022-10-30T02:44:52;2.97;;;2.38;;
73321;SDS011;61549;37.044;22.128;2022-10-30T02:47:18;3.22;;;2.30;;
73321;SDS011;61549;37.044;22.128;2022-10-30T02:49:44;3.92;;;2.20;;
73321;SDS011;61549;37.044;22.128;2022-10-30T02:52:10;2.92;;;2.08;;
73321;SDS011;61549;37.044;22.128;2022-10-30T02:54:36;3.25;;;2.40;;
73321;SDS011;61549;37.044;22.128;2022-10-30T02:57:02;2.92;;;2.30;;
73321;SDS011;61549;37.044;22.128;2022-10-30T02:59:28;3.20;;;2.20;;
73321;SDS011;61549;37.044;22.128;2022-10-30T03:01:54;3.90;;;2.30;;
73321;SDS011;61549;37.044;22.128;2022-10-30T03:04:20;3.92;;;2.28;;
73321;SDS011;61549;37.044;22.128;2022-10-30T03:06:46;4.82;;;2.15;;
73321;SDS011;61549;37.044;22.128;2022-10-30T03:09:12;5.05;;;2.20;;
73321;SDS011;61549;37.044;22.128;2022-10-30T03:11:37;2.75;;;2.10;;
73321;SDS011;61549;37.044;22.128;2022-10-30T03:14:03;3.42;;;2.30;;
73321;SDS011;61549;37.044;22.128;2022-10-30T03:16:29;4.15;;;2.10;;
73321;SDS011;61549;37.044;22.128;2022-10-30T03:18:56;4.32;;;2.42;;
73321;SDS011;61549;37.044;22.128;2022-10-30T03:21:23;3.08;;;2.20;;
73321;SDS011;61549;37.044;22.128;2022-10-30T03:23:50;4.03;;;2.40;;
73321;SDS011;61549;37.044;22.128;2022-10-30T03:26:16;4.22;;;2.30;;
73321;SDS011;61549;37.044;22.128;2022-10-30T03:28:43;3.30;;;2.50;;
73321;SDS011;61549;37.044;22.128;2022-10-30T03:31:10;3.65;;;2.30;;
73321;SDS011;61549;37.044;22.128;2022-10-30T03:33:38;4.13;;;2.20;;
73321;SDS011;61549;37.044;22.128;2022-10-30T03:36:05;3.50;;;2.40;;
73321;SDS011;61549;37.044;22.128;2022-10-30T03:38:32;2.70;;;2.17;;
73321;SDS011;61549;37.044;22.128;2022-10-30T03:40:59;3.33;;;2.53;;
73321;SDS011;61549;37.044;22.128;2022-10-30T03:43:25;4.07;;;2.70;;
73321;SDS011;61549;37.044;22.128;2022-10-30T03:45:52;3.78;;;2.70;;
73321;SDS011;61549;37.044;22.128;2022-10-30T03:48:20;4.30;;;2.40;;
73321;SDS011;61549;37.044;22.128;2022-10-30T03:50:47;4.25;;;2.53;;
73321;SDS011;61549;37.044;22.128;2022-10-30T03:53:14;5.53;;;2.78;;
73321;SDS011;61549;37.044;22.128;2022-10-30T03:55:40;4.63;;;2.63;;
73321;SDS011;61549;37.044;22.128;2022-10-30T03:58:06;8.75;;;3.00;;
73321;SDS011;61549;37.044;22.128;2022-10-30T04:00:32;4.43;;;2.70;;
73321;SDS011;61549;37.044;22.128;2022-10-30T04:02:59;3.05;;;2.58;;
73321;SDS011;61549;37.044;22.128;2022-10-30T04:05:26;3.40;;;2.70;;
73321;SDS011;61549;37.044;22.128;2022-10-30T04:07:56;4.15;;;2.83;;
73321;SDS011;61549;37.044;22.128;2022-10-30T04:10:23;4.72;;;2.90;;
73321;SDS011;61549;37.044;22.128;2022-10-30T04:12:50;4.47;;;2.90;;
73321;SDS011;61549;37.044;22.128;2022-10-30T04:15:17;4.15;;;2.80;;
73321;SDS011;61549;37.044;22.128;2022-10-30T04:17:49;5.45;;;2.88;;
73321;SDS011;61549;37.044;22.128;2022-10-30T04:20:16;4.57;;;3.03;;
73321;SDS011;61549;37.044;22.128;2022-10-30T04:22:42;7.03;;;2.83;;
73321;SDS011;61549;37.044;22.128;2022-10-30T04:25:08;3.92;;;3.20;;
73321;SDS011;61549;37.044;22.128;2022-10-30T04:27:41;5.45;;;3.13;;
73321;SDS011;61549;37.044;22.128;2022-10-30T04:30:09;4.80;;;2.72;;
73321;SDS011;61549;37.044;22.128;2022-10-30T04:32:36;4.47;;;2.67;;
73321;SDS011;61549;37.044;22.128;2022-10-30T04:35:19;3.60;;;2.58;;
73321;SDS011;61549;37.044;22.128;2022-10-30T04:40:19;4.45;;;3.20;;
73321;SDS011;61549;37.044;22.128;2022-10-30T04:42:46;3.55;;;3.03;;
73321;SDS011;61549;37.044;22.128;2022-10-30T04:45:12;4.25;;;2.85;;
73321;SDS011;61549;37.044;22.128;2022-10-30T04:47:38;4.07;;;2.53;;
73321;SDS011;61549;37.044;22.128;2022-10-30T04:50:04;4.43;;;3.40;;
73321;SDS011;61549;37.044;22.128;2022-10-30T04:52:30;6.22;;;4.18;;
73321;SDS011;61549;37.044;22.128;2022-10-30T04:54:56;6.93;;;5.05;;
73321;SDS011;61549;37.044;22.128;2022-10-30T04:57:22;5.38;;;4.10;;
73321;SDS011;61549;37.044;22.128;2022-10-30T04:59:48;4.82;;;3.78;;
73321;SDS011;61549;37.044;22.128;2022-10-30T05:02:14;7.60;;;3.90;;
73321;SDS011;61549;37.044;22.128;2022-10-30T05:04:40;4.88;;;3.83;;
73321;SDS011;61549;37.044;22.128;2022-10-30T05:07:06;4.95;;;3.58;;
73321;SDS011;61549;37.044;22.128;2022-10-30T05:09:32;6.40;;;3.65;;
73321;SDS011;61549;37.044;22.128;2022-10-30T05:11:58;4.97;;;3.67;;
73321;SDS011;61549;37.044;22.128;2022-10-30T05:14:26;6.80;;;4.75;;
73321;SDS011;61549;37.044;22.128;2022-10-30T05:16:54;7.28;;;4.50;;
73321;SDS011;61549;37.044;22.128;2022-10-30T05:19:20;7.43;;;4.10;;
73321;SDS011;61549;37.044;22.128;2022-10-30T05:21:45;5.45;;;4.25;;
73321;SDS011;61549;37.044;22.128;2022-10-30T05:24:11;4.35;;;3.45;;
73321;SDS011;61549;37.044;22.128;2022-10-30T05:26:37;6.05;;;3.50;;
73321;SDS011;61549;37.044;22.128;2022-10-30T05:29:03;5.70;;;3.30;;
73321;SDS011;61549;37.044;22.128;2022-10-30T05:31:29;5.90;;;3.17;;
73321;SDS011;61549;37.044;22.128;2022-10-30T05:33:55;3.70;;;2.80;;
73321;SDS011;61549;37.044;22.128;2022-10-30T05:36:20;4.75;;;2.95;;
73321;SDS011;61549;37.044;22.128;2022-10-30T05:38:46;3.20;;;2.38;;
73321;SDS011;61549;37.044;22.128;2022-10-30T05:41:12;3.63;;;2.58;;
73321;SDS011;61549;37.044;22.128;2022-10-30T05:43:38;3.75;;;2.50;;
73321;SDS011;61549;37.044;22.128;2022-10-30T05:46:04;4.18;;;2.83;;
73321;SDS011;61549;37.044;22.128;2022-10-30T05:48:30;5.93;;;3.40;;
73321;SDS011;61549;37.044;22.128;2022-10-30T05:50:55;7.60;;;3.92;;
73321;SDS011;61549;37.044;22.128;2022-10-30T05:53:22;5.88;;;3.60;;
73321;SDS011;61549;37.044;22.128;2022-10-30T05:55:48;6.00;;;3.00;;
73321;SDS011;61549;37.044;22.128;2022-10-30T05:58:14;5.07;;;3.83;;
73321;SDS011;61549;37.044;22.128;2022-10-30T06:00:40;4.50;;;2.90;;
73321;SDS011;61549;37.044;22.128;2022-10-30T06:03:11;6.10;;;3.15;;
73321;SDS011;61549;37.044;22.128;2022-10-30T06:05:37;6.63;;;3.72;;
73321;SDS011;61549;37.044;22.128;2022-10-30T06:08:04;5.45;;;3.10;;
73321;SDS011;61549;37.044;22.128;2022-10-30T06:10:31;5.18;;;3.00;;
73321;SDS011;61549;37.044;22.128;2022-10-30T06:13:01;4.05;;;2.83;;
73321;SDS011;61549;37.044;22.128;2022-10-30T06:15:30;4.45;;;3.17;;
73321;SDS011;61549;37.044;22.128;2022-10-30T06:17:56;5.43;;;3.33;;
73321;SDS011;61549;37.044;22.128;2022-10-30T06:20:23;5.20;;;2.78;;
73321;SDS011;61549;37.044;22.128;2022-10-30T06:23:03;4.40;;;3.20;;
73321;SDS011;61549;37.044;22.128;2022-10-30T06:25:31;6.13;;;3.58;;
73321;SDS011;61549;37.044;22.128;2022-10-30T06:27:58;5.90;;;3.50;;
73321;SDS011;61549;37.044;22.128;2022-10-30T06:30:25;3.75;;;3.00;;
73321;SDS011;61549;37.044;22.128;2022-10-30T06:32:59;3.15;;;2.45;;
73321;SDS011;61549;37.044;22.128;2022-10-30T06:35:26;3.38;;;2.67;;
73321;SDS011;61549;37.044;22.128;2022-10-30T06:37:53;5.95;;;3.35;;
73321;SDS011;61549;37.044;22.128;2022-10-30T06:40:21;6.97;;;2.88;;
73321;SDS011;61549;37.044;22.128;2022-10-30T06:42:48;6.10;;;2.70;;
73321;SDS011;61549;37.044;22.128;2022-10-30T06:45:15;5.75;;;3.40;;
73321;SDS011;61549;37.044;22.128;2022-10-30T06:47:43;4.15;;;3.00;;
73321;SDS011;61549;37.044;22.128;2022-10-30T06:50:10;4.32;;;3.00;;
73321;SDS011;61549;37.044;22.128;2022-10-30T06:52:37;4.03;;;2.75;;
73321;SDS011;61549;37.044;22.128;2022-10-30T06:55:03;4.97;;;2.90;;
73321;SDS011;61549;37.044;22.128;2022-10-30T06:57:29;5.30;;;3.08;;
73321;SDS011;61549;37.044;22.128;2022-10-30T06:59:55;5.38;;;3.00;;
73321;SDS011;61549;37.044;22.128;2022-10-30T07:02:21;3.88;;;2.85;;
73321;SDS011;61549;37.044;22.128;2022-10-30T07:04:47;6.15;;;3.70;;
73321;SDS011;61549;37.044;22.128;2022-10-30T07:07:14;5.63;;;3.50;;
73321;SDS011;61549;37.044;22.128;2022-10-30T07:09:41;4.95;;;3.53;;
73321;SDS011;61549;37.044;22.128;2022-10-30T07:12:07;7.05;;;3.40;;
73321;SDS011;61549;37.044;22.128;2022-10-30T07:14:33;5.70;;;3.42;;
73321;SDS011;61549;37.044;22.128;2022-10-30T07:16:59;3.72;;;3.20;;
73321;SDS011;61549;37.044;22.128;2022-10-30T07:19:25;6.35;;;3.33;;
73321;SDS011;61549;37.044;22.128;2022-10-30T07:21:51;5.80;;;3.78;;
73321;SDS011;61549;37.044;22.128;2022-10-30T07:24:17;6.03;;;3.60;;
73321;SDS011;61549;37.044;22.128;2022-10-30T07:26:43;6.50;;;3.25;;
73321;SDS011;61549;37.044;22.128;2022-10-30T07:29:09;4.50;;;2.97;;
73321;SDS011;61549;37.044;22.128;2022-10-30T07:31:35;4.47;;;3.13;;
73321;SDS011;61549;37.044;22.128;2022-10-30T07:34:01;5.28;;;3.28;;
73321;SDS011;61549;37.044;22.128;2022-10-30T07:36:27;3.63;;;3.00;;
73321;SDS011;61549;37.044;22.128;2022-10-30T07:38:53;4.70;;;3.28;;
73321;SDS011;61549;37.044;22.128;2022-10-30T07:41:21;7.82;;;3.50;;
73321;SDS011;61549;37.044;22.128;2022-10-30T07:43:47;4.60;;;3.50;;
73321;SDS011;61549;37.044;22.128;2022-10-30T07:46:12;5.40;;;3.35;;
73321;SDS011;61549;37.044;22.128;2022-10-30T07:48:39;5.57;;;3.10;;
73321;SDS011;61549;37.044;22.128;2022-10-30T07:51:06;5.45;;;3.33;;
73321;SDS011;61549;37.044;22.128;2022-10-30T07:53:32;4.63;;;2.92;;
73321;SDS011;61549;37.044;22.128;2022-10-30T07:55:59;6.53;;;3.60;;
73321;SDS011;61549;37.044;22.128;2022-10-30T07:58:32;5.60;;;3.40;;
73321;SDS011;61549;37.044;22.128;2022-10-30T08:00:57;6.70;;;3.05;;
73321;SDS011;61549;37.044;22.128;2022-10-30T08:03:23;4.75;;;3.13;;
73321;SDS011;61549;37.044;22.128;2022-10-30T08:05:49;5.05;;;2.95;;
73321;SDS011;61549;37.044;22.128;2022-10-30T08:08:15;4.38;;;3.10;;
73321;SDS011;61549;37.044;22.128;2022-10-30T08:10:41;5.32;;;3.25;;
73321;SDS011;61549;37.044;22.128;2022-10-30T08:13:07;4.55;;;2.85;;
73321;SDS011;61549;37.044;22.128;2022-10-30T08:15:33;5.10;;;3.25;;
73321;SDS011;61549;37.044;22.128;2022-10-30T08:17:58;4.47;;;3.17;;
73321;SDS011;61549;37.044;22.128;2022-10-30T08:20:25;3.40;;;2.80;;
73321;SDS011;61549;37.044;22.128;2022-10-30T08:22:54;4.38;;;2.70;;
73321;SDS011;61549;37.044;22.128;2022-10-30T08:25:23;4.07;;;2.83;;
73321;SDS011;61549;37.044;22.128;2022-10-30T08:27:54;4.63;;;2.92;;
73321;SDS011;61549;37.044;22.128;2022-10-30T08:30:25;4.30;;;3.07;;
73321;SDS011;61549;37.044;22.128;2022-10-30T08:32:56;3.50;;;2.38;;
73321;SDS011;61549;37.044;22.128;2022-10-30T08:35:23;3.40;;;2.47;;
73321;SDS011;61549;37.044;22.128;2022-10-30T08:37:49;3.45;;;2.65;;
73321;SDS011;61549;37.044;22.128;2022-10-30T08:40:22;4.18;;;2.47;;
73321;SDS011;61549;37.044;22.128;2022-10-30T08:42:49;3.70;;;2.50;;
73321;SDS011;61549;37.044;22.128;2022-10-30T08:45:16;3.47;;;2.65;;
73321;SDS011;61549;37.044;22.128;2022-10-30T08:47:42;4.45;;;2.53;;
73321;SDS011;61549;37.044;22.128;2022-10-30T08:50:08;3.35;;;2.38;;
73321;SDS011;61549;37.044;22.128;2022-10-30T08:52:34;3.80;;;2.67;;
73321;SDS011;61549;37.044;22.128;2022-10-30T08:54:59;3.80;;;2.53;;
73321;SDS011;61549;37.044;22.128;2022-10-30T08:57:26;4.43;;;2.55;;
73321;SDS011;61549;37.044;22.128;2022-10-30T08:59:51;4.57;;;2.67;;
73321;SDS011;61549;37.044;22.128;2022-10-30T09:02:17;4.93;;;2.65;;
73321;SDS011;61549;37.044;22.128;2022-10-30T09:04:43;4.10;;;2.50;;
73321;SDS011;61549;37.044;22.128;2022-10-30T09:07:09;3.53;;;2.30;;
73321;SDS011;61549;37.044;22.128;2022-10-30T09:09:35;3.03;;;2.38;;
73321;SDS011;61549;37.044;22.128;2022-10-30T09:12:01;3.42;;;2.40;;
73321;SDS011;61549;37.044;22.128;2022-10-30T09:14:27;3.42;;;2.20;;
73321;SDS011;61549;37.044;22.128;2022-10-30T09:16:53;4.88;;;2.22;;
73321;SDS011;61549;37.044;22.128;2022-10-30T09:19:19;3.72;;;2.10;;
73321;SDS011;61549;37.044;22.128;2022-10-30T09:21:45;4.07;;;1.95;;
73321;SDS011;61549;37.044;22.128;2022-10-30T09:24:11;3.67;;;2.20;;
73321;SDS011;61549;37.044;22.128;2022-10-30T09:26:36;4.93;;;2.20;;
73321;SDS011;61549;37.044;22.128;2022-10-30T09:29:02;5.72;;;2.47;;
73321;SDS011;61549;37.044;22.128;2022-10-30T09:31:28;3.58;;;2.13;;
73321;SDS011;61549;37.044;22.128;2022-10-30T09:33:54;3.17;;;2.20;;
73321;SDS011;61549;37.044;22.128;2022-10-30T09:36:19;2.90;;;2.15;;
73321;SDS011;61549;37.044;22.128;2022-10-30T09:38:45;3.28;;;2.30;;
73321;SDS011;61549;37.044;22.128;2022-10-30T09:41:24;2.72;;;2.10;;
73321;SDS011;61549;37.044;22.128;2022-10-30T09:54:54;3.85;;;2.45;;
73321;SDS011;61549;37.044;22.128;2022-10-30T10:00:01;4.97;;;2.30;;
73321;SDS011;61549;37.044;22.128;2022-10-30T10:02:50;5.22;;;2.45;;
73321;SDS011;61549;37.044;22.128;2022-10-30T10:05:28;2.45;;;2.13;;
73321;SDS011;61549;37.044;22.128;2022-10-30T10:08:03;4.20;;;2.10;;
73321;SDS011;61549;37.044;22.128;2022-10-30T10:10:39;4.18;;;2.42;;
73321;SDS011;61549;37.044;22.128;2022-10-30T10:13:14;3.38;;;2.40;;
73321;SDS011;61549;37.044;22.128;2022-10-30T10:15:47;5.97;;;2.58;;
73321;SDS011;61549;37.044;22.128;2022-10-30T10:18:22;3.92;;;2.30;;
73321;SDS011;61549;37.044;22.128;2022-10-30T10:20:52;5.50;;;2.22;;
73321;SDS011;61549;37.044;22.128;2022-10-30T10:25:56;3.15;;;2.10;;
73321;SDS011;61549;37.044;22.128;2022-10-30T10:39:37;3.85;;;2.13;;
73321;SDS011;61549;37.044;22.128;2022-10-30T10:48:16;2.85;;;2.08;;
73321;SDS011;61549;37.044;22.128;2022-10-30T10:50:55;3.70;;;2.40;;
73321;SDS011;61549;37.044;22.128;2022-10-30T10:53:42;3.17;;;2.53;;
73321;SDS011;61549;37.044;22.128;2022-10-30T10:56:25;4.70;;;2.38;;
73321;SDS011;61549;37.044;22.128;2022-10-30T10:58:56;7.32;;;2.30;;
73321;SDS011;61549;37.044;22.128;2022-10-30T11:09:42;3.95;;;2.80;;
73321;SDS011;61549;37.044;22.128;2022-10-30T11:12:10;4.47;;;2.88;;
73321;SDS011;61549;37.044;22.128;2022-10-30T11:14:36;3.95;;;2.50;;
73321;SDS011;61549;37.044;22.128;2022-10-30T11:19:37;2.53;;;2.20;;
73321;SDS011;61549;37.044;22.128;2022-10-30T11:22:07;3.08;;;2.13;;
73321;SDS011;61549;37.044;22.128;2022-10-30T11:25:17;3.10;;;2.20;;
73321;SDS011;61549;37.044;22.128;2022-10-30T11:27:49;3.85;;;2.00;;
73321;SDS011;61549;37.044;22.128;2022-10-30T11:30:20;2.57;;;2.00;;
73321;SDS011;61549;37.044;22.128;2022-10-30T11:32:49;2.78;;;2.00;;
73321;SDS011;61549;37.044;22.128;2022-10-30T11:35:16;2.88;;;2.08;;
73321;SDS011;61549;37.044;22.128;2022-10-30T11:37:44;4.05;;;2.40;;
73321;SDS011;61549;37.044;22.128;2022-10-30T11:45:24;2.88;;;2.00;;
73321;SDS011;61549;37.044;22.128;2022-10-30T11:48:00;3.20;;;2.00;;
73321;SDS011;61549;37.044;22.128;2022-10-30T11:50:28;4.95;;;2.28;;
73321;SDS011;61549;37.044;22.128;2022-10-30T11:52:56;3.45;;;2.30;;
73321;SDS011;61549;37.044;22.128;2022-10-30T11:55:26;3.97;;;2.10;;
73321;SDS011;61549;37.044;22.128;2022-10-30T11:57:56;3.40;;;2.15;;
73321;SDS011;61549;37.044;22.128;2022-10-30T12:02:51;2.40;;;2.03;;
73321;SDS011;61549;37.044;22.128;2022-10-30T12:08:11;4.05;;;2.45;;
73321;SDS011;61549;37.044;22.128;2022-10-30T12:13:32;3.60;;;2.55;;
73321;SDS011;61549;37.044;22.128;2022-10-30T12:16:11;2.88;;;2.30;;
73321;SDS011;61549;37.044;22.128;2022-10-30T12:18:40;2.75;;;2.38;;
73321;SDS011;61549;37.044;22.128;2022-10-30T12:21:17;3.20;;;2.50;;
73321;SDS011;61549;37.044;22.128;2022-10-30T12:23:49;2.63;;;2.38;;
73321;SDS011;61549;37.044;22.128;2022-10-30T12:26:20;3.55;;;2.50;;
73321;SDS011;61549;37.044;22.128;2022-10-30T12:28:52;4.95;;;2.60;;
73321;SDS011;61549;37.044;22.128;2022-10-30T12:31:25;2.65;;;2.42;;
73321;SDS011;61549;37.044;22.128;2022-10-30T12:37:25;3.85;;;2.60;;
73321;SDS011;61549;37.044;22.128;2022-10-30T12:40:04;3.22;;;2.70;;
73321;SDS011;61549;37.044;22.128;2022-10-30T12:42:34;2.95;;;2.30;;
73321;SDS011;61549;37.044;22.128;2022-10-30T12:45:16;2.53;;;2.22;;
73321;SDS011;61549;37.044;22.128;2022-10-30T12:50:41;4.32;;;2.80;;
73321;SDS011;61549;37.044;22.128;2022-10-30T12:56:27;2.97;;;2.40;;
73321;SDS011;61549;37.044;22.128;2022-10-30T13:01:53;3.20;;;2.33;;
73321;SDS011;61549;37.044;22.128;2022-10-30T13:04:31;4.38;;;2.30;;
73321;SDS011;61549;37.044;22.128;2022-10-30T13:07:07;3.03;;;2.40;;
73321;SDS011;61549;37.044;22.128;2022-10-30T13:09:55;3.00;;;2.30;;
73321;SDS011;61549;37.044;22.128;2022-10-30T13:12:41;4.97;;;2.30;;
73321;SDS011;61549;37.044;22.128;2022-10-30T13:15:20;2.72;;;2.10;;
73321;SDS011;61549;37.044;22.128;2022-10-30T13:17:52;2.67;;;2.22;;
73321;SDS011;61549;37.044;22.128;2022-10-30T13:20:22;2.88;;;2.13;;
73321;SDS011;61549;37.044;22.128;2022-10-30T13:22:57;5.38;;;2.15;;
73321;SDS011;61549;37.044;22.128;2022-10-30T13:25:38;4.45;;;2.20;;
73321;SDS011;61549;37.044;22.128;2022-10-30T13:28:42;2.65;;;1.90;;
73321;SDS011;61549;37.044;22.128;2022-10-30T13:31:28;2.63;;;1.90;;
73321;SDS011;61549;37.044;22.128;2022-10-30T13:34:15;2.67;;;1.95;;
73321;SDS011;61549;37.044;22.128;2022-10-30T13:37:11;3.38;;;1.90;;
73321;SDS011;61549;37.044;22.128;2022-10-30T13:45:46;2.63;;;1.90;;
73321;SDS011;61549;37.044;22.128;2022-10-30T13:54:18;2.15;;;1.75;;
73321;SDS011;61549;37.044;22.128;2022-10-30T13:56:47;3.60;;;1.90;;
73321;SDS011;61549;37.044;22.128;2022-10-30T14:05:01;2.28;;;1.90;;
73321;SDS011;61549;37.044;22.128;2022-10-30T14:10:41;4.20;;;1.80;;
73321;SDS011;61549;37.044;22.128;2022-10-30T14:15:44;4.10;;;1.85;;
73321;SDS011;61549;37.044;22.128;2022-10-30T14:20:49;2.53;;;2.10;;
73321;SDS011;61549;37.044;22.128;2022-10-30T14:23:23;3.05;;;1.85;;
73321;SDS011;61549;37.044;22.128;2022-10-30T14:28:36;2.75;;;2.08;;
73321;SDS011;61549;37.044;22.128;2022-10-30T14:31:07;5.35;;;2.53;;
73321;SDS011;61549;37.044;22.128;2022-10-30T14:33:42;4.53;;;2.13;;
73321;SDS011;61549;37.044;22.128;2022-10-30T14:38:51;4.50;;;2.00;;
73321;SDS011;61549;37.044;22.128;2022-10-30T14:41:39;4.43;;;2.13;;
73321;SDS011;61549;37.044;22.128;2022-10-30T14:46:57;2.05;;;1.80;;
73321;SDS011;61549;37.044;22.128;2022-10-30T15:03:06;3.45;;;2.20;;
73321;SDS011;61549;37.044;22.128;2022-10-30T15:05:45;4.30;;;2.20;;
73321;SDS011;61549;37.044;22.128;2022-10-30T15:13:45;2.83;;;2.17;;
73321;SDS011;61549;37.044;22.128;2022-10-30T15:16:15;3.50;;;2.08;;
73321;SDS011;61549;37.044;22.128;2022-10-30T15:18:45;4.28;;;2.20;;
73321;SDS011;61549;37.044;22.128;2022-10-30T15:21:21;3.10;;;2.50;;
73321;SDS011;61549;37.044;22.128;2022-10-30T15:23:53;7.47;;;2.70;;
73321;SDS011;61549;37.044;22.128;2022-10-30T15:26:22;6.03;;;2.80;;
73321;SDS011;61549;37.044;22.128;2022-10-30T15:28:54;9.18;;;3.75;;
73321;SDS011;61549;37.044;22.128;2022-10-30T15:31:24;7.60;;;3.78;;
73321;SDS011;61549;37.044;22.128;2022-10-30T15:33:52;8.05;;;5.10;;
73321;SDS011;61549;37.044;22.128;2022-10-30T15:36:19;9.77;;;5.55;;
73321;SDS011;61549;37.044;22.128;2022-10-30T15:39:05;11.30;;;7.47;;
73321;SDS011;61549;37.044;22.128;2022-10-30T15:41:37;10.20;;;7.70;;
73321;SDS011;61549;37.044;22.128;2022-10-30T15:44:12;12.45;;;8.48;;
73321;SDS011;61549;37.044;22.128;2022-10-30T15:46:45;13.95;;;9.50;;
73321;SDS011;61549;37.044;22.128;2022-10-30T15:49:14;15.77;;;10.38;;
73321;SDS011;61549;37.044;22.128;2022-10-30T15:51:45;15.52;;;10.38;;
73321;SDS011;61549;37.044;22.128;2022-10-30T15:54:12;15.18;;;9.63;;
73321;SDS011;61549;37.044;22.128;2022-10-30T15:56:44;14.63;;;9.43;;
73321;SDS011;61549;37.044;22.128;2022-10-30T15:59:24;12.43;;;8.15;;
73321;SDS011;61549;37.044;22.128;2022-10-30T16:01:53;11.93;;;8.00;;
73321;SDS011;61549;37.044;22.128;2022-10-30T16:04:21;9.13;;;7.18;;
73321;SDS011;61549;37.044;22.128;2022-10-30T16:06:59;7.75;;;6.35;;
73321;SDS011;61549;37.044;22.128;2022-10-30T16:09:29;7.88;;;5.05;;
73321;SDS011;61549;37.044;22.128;2022-10-30T16:11:56;8.05;;;6.15;;
73321;SDS011;61549;37.044;22.128;2022-10-30T16:14:25;7.40;;;4.43;;
73321;SDS011;61549;37.044;22.128;2022-10-30T16:16:58;7.82;;;3.88;;
73321;SDS011;61549;37.044;22.128;2022-10-30T16:19:25;5.10;;;3.00;;
73321;SDS011;61549;37.044;22.128;2022-10-30T16:21:59;4.17;;;2.57;;
73321;SDS011;61549;37.044;22.128;2022-10-30T16:24:28;3.63;;;2.75;;
73321;SDS011;61549;37.044;22.128;2022-10-30T16:27:04;3.58;;;2.75;;
73321;SDS011;61549;37.044;22.128;2022-10-30T16:29:38;3.10;;;2.40;;
73321;SDS011;61549;37.044;22.128;2022-10-30T16:32:06;3.83;;;2.58;;
73321;SDS011;61549;37.044;22.128;2022-10-30T16:34:39;4.05;;;2.45;;
73321;SDS011;61549;37.044;22.128;2022-10-30T16:39:52;2.83;;;2.20;;
73321;SDS011;61549;37.044;22.128;2022-10-30T16:42:20;2.72;;;2.00;;
73321;SDS011;61549;37.044;22.128;2022-10-30T16:44:52;3.13;;;1.90;;
73321;SDS011;61549;37.044;22.128;2022-10-30T16:47:36;2.33;;;1.77;;
73321;SDS011;61549;37.044;22.128;2022-10-30T16:50:04;3.15;;;2.17;;
73321;SDS011;61549;37.044;22.128;2022-10-30T16:52:32;3.85;;;2.17;;
73321;SDS011;61549;37.044;22.128;2022-10-30T16:55:17;2.97;;;2.17;;
73321;SDS011;61549;37.044;22.128;2022-10-30T16:57:47;3.03;;;2.10;;
73321;SDS011;61549;37.044;22.128;2022-10-30T17:00:20;3.38;;;2.13;;
73321;SDS011;61549;37.044;22.128;2022-10-30T17:02:48;2.83;;;2.15;;
73321;SDS011;61549;37.044;22.128;2022-10-30T17:07:52;3.70;;;2.08;;
73321;SDS011;61549;37.044;22.128;2022-10-30T17:10:36;2.78;;;2.20;;
73321;SDS011;61549;37.044;22.128;2022-10-30T17:16:21;3.00;;;1.88;;
73321;SDS011;61549;37.044;22.128;2022-10-30T17:18:49;3.55;;;2.20;;